createdAt,value
2023-03-21T00:00:41.288Z,67.50
2023-03-21T00:03:55.747Z,68.80
2023-03-21T00:06:57.508Z,66.00
2023-03-21T00:10:08.889Z,68.70
2023-03-21T00:13:16.246Z,65.10
2023-03-21T00:16:24.526Z,65.70
2023-03-21T00:19:33.776Z,63.40
2023-03-21T00:22:35.842Z,63.70
2023-03-21T00:25:37.704Z,61.80
2023-03-21T00:28:41.331Z,61.90
2023-03-21T00:31:42.986Z,59.70
2023-03-21T00:34:58.848Z,58.70
2023-03-21T00:38:06.772Z,59.10
2023-03-21T00:41:20.951Z,58.40
2023-03-21T00:44:27.821Z,59.20
2023-03-21T00:47:29.446Z,57.60
2023-03-21T00:50:31.371Z,56.70
2023-03-21T00:53:32.989Z,58.50
2023-03-21T00:56:34.576Z,56.50
2023-03-21T00:59:36.311Z,55.90
2023-03-21T01:02:39.201Z,56.20
2023-03-21T01:05:44.265Z,52.40
2023-03-21T01:08:52.799Z,53.70
2023-03-21T01:11:54.800Z,53.20
2023-03-21T01:17:57.977Z,53.10
2023-03-21T01:21:00.565Z,51.00
2023-03-21T01:24:02.458Z,52.90
2023-03-21T01:27:04.399Z,52.50
2023-03-21T01:30:17.349Z,52.30
2023-03-21T01:33:22.146Z,50.60
2023-03-21T01:36:26.306Z,51.40
2023-03-21T01:39:28.669Z,52.70
2023-03-21T01:42:31.286Z,50.80
2023-03-21T01:46:28.580Z,51.80
2023-03-21T01:49:36.296Z,50.60
2023-03-21T01:52:39.199Z,51.80
2023-03-21T01:55:41.477Z,51.60
2023-03-21T01:58:43.937Z,52.10
2023-03-21T02:01:45.589Z,51.20
2023-03-21T02:04:47.594Z,49.40
2023-03-21T02:07:51.964Z,49.70
2023-03-21T02:10:53.598Z,49.50
2023-03-21T02:14:05.713Z,48.40
2023-03-21T02:17:15.815Z,48.50
2023-03-21T02:20:35.775Z,48.10
2023-03-21T02:24:25.367Z,49.50
2023-03-21T02:27:29.415Z,48.30
2023-03-21T02:30:59.327Z,50.30
2023-03-21T02:34:19.896Z,50.10
2023-03-21T02:37:36.648Z,49.40
2023-03-21T02:40:43.366Z,53.40
2023-03-21T02:43:54.838Z,52.00
2023-03-21T02:47:06.061Z,53.50
2023-03-21T02:50:41.990Z,54.20
2023-03-21T02:53:53.290Z,54.50
2023-03-21T02:57:02.579Z,57.40
2023-03-21T03:00:15.597Z,57.80
2023-03-21T03:03:31.536Z,61.40
2023-03-21T03:06:42.803Z,62.50
2023-03-21T03:10:08.075Z,65.70
2023-03-21T03:13:14.225Z,62.90
2023-03-21T03:16:25.978Z,60.10
2023-03-21T03:19:32.751Z,65.50
2023-03-21T03:22:56.860Z,62.50
2023-03-21T03:26:04.261Z,63.30
2023-03-21T03:29:13.434Z,62.60
2023-03-21T03:32:21.639Z,59.10
2023-03-21T03:35:24.105Z,58.10
2023-03-21T03:38:26.155Z,55.10
2023-03-21T03:41:30.136Z,56.50
2023-03-21T03:44:35.393Z,57.70
2023-03-21T03:47:56.379Z,57.00
2023-03-21T03:51:07.808Z,61.30
2023-03-21T03:54:13.497Z,61.70
2023-03-21T03:57:16.105Z,62.60
2023-03-21T04:00:18.177Z,56.10
2023-03-21T04:03:20.386Z,58.80
2023-03-21T04:06:21.967Z,60.20
2023-03-21T04:09:37.466Z,56.20
2023-03-21T04:12:44.690Z,55.40
2023-03-21T04:15:46.418Z,54.60
2023-03-21T04:18:48.142Z,53.80
2023-03-21T04:21:49.729Z,54.40
2023-03-21T04:31:02.470Z,51.70
2023-03-21T04:34:08.754Z,52.90
2023-03-21T04:37:10.624Z,53.60
2023-03-21T04:40:12.942Z,55.00
2023-03-21T04:43:14.767Z,53.70
2023-03-21T04:46:16.667Z,52.60
2023-03-21T04:49:18.395Z,54.40
2023-03-21T04:52:20.451Z,54.00
2023-03-21T04:55:22.073Z,52.30
2023-03-21T04:58:23.922Z,51.40
2023-03-21T05:01:25.980Z,56.10
2023-03-21T05:04:28.962Z,51.40
2023-03-21T05:07:30.970Z,51.10
2023-03-21T05:10:33.180Z,49.20
2023-03-21T05:13:34.821Z,50.70
2023-03-21T05:19:38.738Z,51.50
2023-03-21T05:22:40.414Z,51.90
2023-03-21T05:25:42.898Z,50.80
2023-03-21T05:28:44.693Z,52.40
2023-03-21T05:31:46.546Z,52.30
2023-03-21T05:34:48.253Z,49.40
2023-03-21T05:37:49.979Z,45.10
2023-03-21T05:40:52.094Z,43.00
2023-03-21T05:43:54.033Z,46.20
2023-03-21T05:46:55.752Z,47.40
2023-03-21T05:49:57.623Z,47.80
2023-03-21T05:52:59.555Z,51.20
2023-03-21T05:56:01.325Z,48.70
2023-03-21T05:59:03.041Z,54.60
2023-03-21T06:02:04.737Z,59.40
2023-03-21T06:05:06.928Z,64.50
2023-03-21T06:08:08.905Z,65.20
2023-03-21T06:11:39.345Z,63.70
2023-03-21T06:14:41.026Z,62.30
2023-03-21T06:20:44.093Z,65.90
2023-03-21T06:23:45.776Z,65.60
2023-03-21T06:26:47.920Z,64.80
2023-03-21T06:29:49.480Z,60.50
2023-03-21T06:32:51.124Z,63.70
2023-03-21T06:35:54.242Z,59.00
2023-03-21T06:38:56.005Z,54.40
2023-03-21T06:41:57.794Z,53.10
2023-03-21T06:44:59.574Z,51.70
2023-03-21T06:48:01.197Z,49.50
2023-03-21T06:51:02.902Z,45.20
2023-03-21T06:54:04.709Z,44.90
2023-03-21T06:57:06.253Z,41.00
2023-03-21T07:00:08.859Z,40.50
2023-03-21T07:03:11.567Z,39.00
2023-03-21T07:06:13.455Z,38.40
2023-03-21T07:09:15.027Z,34.90
2023-03-21T07:12:16.784Z,37.30
2023-03-21T07:15:18.468Z,34.20
2023-03-21T07:18:20.249Z,35.50
2023-03-21T07:21:22.215Z,35.00
2023-03-21T07:24:23.874Z,34.90
2023-03-21T07:27:25.439Z,27.60
2023-03-21T07:30:27.226Z,24.70
2023-03-21T07:33:28.964Z,23.70
2023-03-21T07:36:30.532Z,21.00
2023-03-21T07:39:32.190Z,20.70
2023-03-21T07:42:33.987Z,20.10
2023-03-21T07:45:36.164Z,19.60
2023-03-21T07:48:37.839Z,19.30
2023-03-21T07:51:39.546Z,20.60
2023-03-21T07:54:41.069Z,18.00
2023-03-21T07:57:42.885Z,15.90
2023-03-21T08:00:44.493Z,15.10
2023-03-21T08:03:46.211Z,16.20
2023-03-21T08:06:47.949Z,17.90
2023-03-21T08:09:49.573Z,18.90
2023-03-21T08:12:51.357Z,17.20
2023-03-21T08:15:52.986Z,16.50
2023-03-21T08:18:54.658Z,15.10
2023-03-21T08:21:56.624Z,15.80
2023-03-21T08:24:58.181Z,15.10
2023-03-21T08:28:00.013Z,14.90
2023-03-21T08:31:01.703Z,16.20
2023-03-21T08:34:03.510Z,16.80
2023-03-21T08:37:05.064Z,16.00
2023-03-21T08:40:09.098Z,16.10
2023-03-21T08:43:11.206Z,16.80
2023-03-21T08:46:14.209Z,17.50
2023-03-21T08:49:15.831Z,18.60
2023-03-21T08:52:17.448Z,18.10
2023-03-21T08:55:19.662Z,18.40
2023-03-21T08:58:21.218Z,17.80
2023-03-21T09:01:22.869Z,19.20
2023-03-21T09:04:24.533Z,18.70
2023-03-21T09:07:26.238Z,20.50
2023-03-21T09:10:27.799Z,21.40
2023-03-21T09:13:29.485Z,22.30
2023-03-21T09:16:31.293Z,23.80
2023-03-21T09:19:33.335Z,24.30
2023-03-21T09:22:34.860Z,22.50
2023-03-21T09:25:37.415Z,23.10
2023-03-21T09:28:39.817Z,24.00
2023-03-21T09:31:41.415Z,23.90
2023-03-21T09:34:43.045Z,24.70
2023-03-21T09:37:45.615Z,22.40
2023-03-21T09:41:09.007Z,22.70
2023-03-21T09:44:20.804Z,23.70
2023-03-21T09:47:31.062Z,23.10
2023-03-21T09:50:35.174Z,25.00
2023-03-21T09:53:38.863Z,25.70
2023-03-21T09:56:41.202Z,28.40
2023-03-21T09:59:43.065Z,29.70
2023-03-21T10:02:48.120Z,31.50
2023-03-21T10:05:52.181Z,30.70
2023-03-21T10:08:57.083Z,26.90
2023-03-21T10:12:10.570Z,27.70
2023-03-21T10:15:16.792Z,22.90
2023-03-21T10:18:23.235Z,23.10
2023-03-21T10:21:56.536Z,22.20
2023-03-21T10:24:48.516Z,24.00
2023-03-21T10:27:51.077Z,21.30
2023-03-21T10:30:53.411Z,20.60
2023-03-21T10:33:56.972Z,25.50
2023-03-21T10:36:59.844Z,27.00
2023-03-21T10:40:01.544Z,28.70
2023-03-21T10:43:26.470Z,27.40
2023-03-21T10:46:28.268Z,27.80
2023-03-21T10:49:31.440Z,27.20
2023-03-21T10:52:41.509Z,27.90
2023-03-21T10:55:43.409Z,26.70
2023-03-21T10:58:46.201Z,24.60
2023-03-21T11:01:52.760Z,23.80
2023-03-21T11:04:54.969Z,23.30
2023-03-21T11:08:06.278Z,22.80
2023-03-21T11:11:10.133Z,22.40
2023-03-21T11:14:36.497Z,21.60
2023-03-21T11:17:39.008Z,22.30
2023-03-21T11:20:51.988Z,22.80
2023-03-21T11:23:57.334Z,22.70
2023-03-21T11:26:59.542Z,22.20
2023-03-21T11:30:02.058Z,24.30
2023-03-21T11:33:04.457Z,23.40
2023-03-21T11:36:28.583Z,24.30
2023-03-21T11:39:36.826Z,23.30
2023-03-21T11:42:44.366Z,23.40
2023-03-21T11:46:10.991Z,22.70
2023-03-21T11:49:12.719Z,21.70
2023-03-21T11:52:23.511Z,23.10
2023-03-21T11:55:35.304Z,22.10
2023-03-21T11:58:57.663Z,22.30
2023-03-21T12:02:36.962Z,22.40
2023-03-21T12:06:01.862Z,24.10
2023-03-21T12:09:25.670Z,22.60
2023-03-21T12:12:39.264Z,22.50
2023-03-21T12:15:48.718Z,22.30
2023-03-21T12:19:02.095Z,22.60
2023-03-21T12:22:04.208Z,24.90
2023-03-21T12:25:38.105Z,25.90
2023-03-21T12:28:45.660Z,20.00
2023-03-21T12:31:53.562Z,20.20
2023-03-21T12:35:16.827Z,21.50
2023-03-21T12:38:25.465Z,21.00
2023-03-21T12:41:36.195Z,22.40
2023-03-21T12:44:40.123Z,23.10
2023-03-21T12:47:44.130Z,21.20
2023-03-21T12:50:46.363Z,21.90
2023-03-21T12:53:57.582Z,23.40
2023-03-21T12:57:09.286Z,23.20
2023-03-21T13:00:15.862Z,22.90
2023-03-21T13:03:44.174Z,21.90
2023-03-21T13:06:47.409Z,23.80
2023-03-21T13:09:49.065Z,24.00
2023-03-21T13:13:12.458Z,23.50
2023-03-21T13:16:36.376Z,24.00
2023-03-21T13:19:50.178Z,25.10
2023-03-21T13:22:51.807Z,24.50
2023-03-21T13:25:55.146Z,25.50
2023-03-21T13:28:58.493Z,27.90
2023-03-21T13:32:14.725Z,26.40
2023-03-21T13:35:20.584Z,25.50
2023-03-21T13:38:29.368Z,27.10
2023-03-21T13:41:39.041Z,28.30
2023-03-21T13:44:44.400Z,26.90
2023-03-21T13:47:55.429Z,25.90
2023-03-21T13:51:04.820Z,28.90
2023-03-21T13:54:06.673Z,26.10
2023-03-21T13:57:21.427Z,26.20
2023-03-21T14:00:31.217Z,25.60
2023-03-21T14:03:35.220Z,25.00
2023-03-21T14:06:48.303Z,25.00
2023-03-21T14:09:52.690Z,23.90
2023-03-21T14:12:54.565Z,21.20
2023-03-21T14:16:13.054Z,20.40
2023-03-21T14:19:14.693Z,26.00
2023-03-21T14:22:16.849Z,29.20
2023-03-21T14:25:20.948Z,24.90
2023-03-21T14:28:28.826Z,23.90
2023-03-21T14:31:32.944Z,25.50
2023-03-21T14:34:35.909Z,24.80
2023-03-21T14:37:41.221Z,32.30
2023-03-21T14:40:48.343Z,25.10
2023-03-21T14:44:14.483Z,23.60
2023-03-21T14:47:21.508Z,23.80
2023-03-21T14:50:46.356Z,23.70
2023-03-21T14:53:48.232Z,22.20
2023-03-21T14:56:53.009Z,22.50
2023-03-21T14:59:58.219Z,23.10
2023-03-21T15:03:00.175Z,23.50
2023-03-21T15:06:02.105Z,24.20
2023-03-21T15:09:05.165Z,26.00
2023-03-21T15:12:08.529Z,26.60
2023-03-21T15:15:13.654Z,24.80
2023-03-21T15:18:19.316Z,25.80
2023-03-21T15:21:27.919Z,26.00
2023-03-21T15:24:32.881Z,24.80
2023-03-21T15:27:41.725Z,26.30
2023-03-21T15:30:51.301Z,25.40
2023-03-21T15:33:54.044Z,22.90
2023-03-21T15:37:02.183Z,23.10
2023-03-21T15:40:31.643Z,23.80
2023-03-21T15:43:40.647Z,28.00
2023-03-21T15:46:46.124Z,29.20
2023-03-21T15:49:54.066Z,28.10
2023-03-21T15:52:56.728Z,25.90
2023-03-21T15:55:59.199Z,24.80
2023-03-21T15:59:02.865Z,24.00
2023-03-21T16:02:05.086Z,24.00
2023-03-21T16:05:22.773Z,22.40
2023-03-21T16:08:28.348Z,25.50
2023-03-21T16:12:02.229Z,27.10
2023-03-21T16:15:04.163Z,25.60
2023-03-21T16:18:07.706Z,27.10
2023-03-21T16:21:13.041Z,28.60
2023-03-21T16:24:14.793Z,26.50
2023-03-21T16:27:17.757Z,25.80
2023-03-21T16:30:20.811Z,28.40
2023-03-21T16:33:22.620Z,25.50
2023-03-21T16:36:32.699Z,27.50
2023-03-21T16:39:34.483Z,29.60
2023-03-21T16:42:36.098Z,31.90
2023-03-21T16:45:38.189Z,37.70
2023-03-21T16:48:40.947Z,37.10
2023-03-21T16:51:42.829Z,35.90
2023-03-21T16:54:44.896Z,35.10
2023-03-21T16:57:47.146Z,34.10
2023-03-21T17:00:48.755Z,35.80
2023-03-21T17:06:52.934Z,32.30
2023-03-21T17:09:54.552Z,34.20
2023-03-21T17:15:57.817Z,38.10
2023-03-21T17:18:59.748Z,32.80
2023-03-21T17:22:01.451Z,35.20
2023-03-21T17:25:03.360Z,32.90
2023-03-21T17:28:05.233Z,34.10
2023-03-21T17:31:15.439Z,33.90
2023-03-21T17:34:17.558Z,37.30
2023-03-21T17:37:19.966Z,37.70
2023-03-21T17:40:25.465Z,37.30
2023-03-21T17:43:27.257Z,35.50
2023-03-21T17:46:29.436Z,39.00
2023-03-21T17:49:31.229Z,53.10
2023-03-21T17:52:32.947Z,51.10
2023-03-21T17:55:35.419Z,45.50
2023-03-21T17:58:37.103Z,48.80
2023-03-21T18:08:08.639Z,45.00
2023-03-21T18:11:05.545Z,48.00
2023-03-21T18:14:16.341Z,46.10
2023-03-21T18:17:20.210Z,56.00
2023-03-21T18:20:24.394Z,49.80
2023-03-21T18:23:26.640Z,43.90
2023-03-21T18:26:30.993Z,42.00
2023-03-21T18:32:55.386Z,42.80
2023-03-21T18:35:59.447Z,45.50
2023-03-21T18:39:01.595Z,43.80
2023-03-21T18:42:05.097Z,43.30
2023-03-21T18:45:10.210Z,44.90
2023-03-21T18:48:11.833Z,46.30
2023-03-21T18:51:13.684Z,53.90
2023-03-21T18:54:15.451Z,64.90
2023-03-21T18:57:36.826Z,75.70
2023-03-21T19:03:43.144Z,59.80
2023-03-21T19:06:46.324Z,70.60
2023-03-21T19:10:09.482Z,65.60
2023-03-21T19:13:09.800Z,59.60
2023-03-21T19:16:11.805Z,61.00
2023-03-21T19:19:13.682Z,52.60
2023-03-21T19:22:16.696Z,49.80
2023-03-21T19:25:18.632Z,47.90
2023-03-21T19:28:20.300Z,57.70
2023-03-21T19:31:24.227Z,44.80
2023-03-21T19:34:26.011Z,51.10
2023-03-21T19:37:27.877Z,54.90
2023-03-21T19:40:29.498Z,57.30
2023-03-21T19:43:33.370Z,57.60
2023-03-21T19:46:35.260Z,57.80
2023-03-21T19:50:20.870Z,58.80
2023-03-21T19:59:06.818Z,48.90
2023-03-21T20:02:33.945Z,48.00
2023-03-21T20:05:32.485Z,51.10
2023-03-21T20:08:57.942Z,50.80
2023-03-21T20:11:56.635Z,47.40
2023-03-21T20:15:10.262Z,59.20
2023-03-21T20:18:18.241Z,64.70
2023-03-21T20:21:25.430Z,52.90
2023-03-21T20:24:27.409Z,46.50
2023-03-21T20:30:32.307Z,40.40
2023-03-21T20:39:46.818Z,46.80
2023-03-21T20:42:49.106Z,48.10
2023-03-21T20:46:01.401Z,59.50
2023-03-21T20:49:03.698Z,52.60
2023-03-21T20:58:59.335Z,43.90
2023-03-21T21:01:58.587Z,43.50
2023-03-21T21:14:45.636Z,44.50
2023-03-21T21:18:07.420Z,49.00
2023-03-21T21:21:09.662Z,46.50
2023-03-21T21:24:11.376Z,48.10
2023-03-21T21:27:13.361Z,51.90
2023-03-21T21:30:15.257Z,50.20
2023-03-21T21:33:16.885Z,52.50
2023-03-21T21:36:18.446Z,44.80
2023-03-21T21:39:20.188Z,43.90
2023-03-21T21:42:21.750Z,38.30
2023-03-21T21:48:33.871Z,43.10
2023-03-21T21:51:35.401Z,42.20
2023-03-21T21:54:37.104Z,37.30
2023-03-21T21:57:38.891Z,42.10
2023-03-21T22:00:40.919Z,47.50
2023-03-21T22:03:42.900Z,45.50
2023-03-21T22:06:44.845Z,43.50
2023-03-21T22:09:46.417Z,47.00
2023-03-21T22:12:48.130Z,55.70
2023-03-21T22:15:49.961Z,49.60
2023-03-21T22:18:51.571Z,45.40
2023-03-21T22:24:54.764Z,43.20
2023-03-21T22:30:57.940Z,49.00
2023-03-21T22:37:01.124Z,42.40
2023-03-21T22:40:04.130Z,45.20
2023-03-21T22:43:05.860Z,47.80
2023-03-21T22:46:07.488Z,50.00
2023-03-21T22:49:09.102Z,49.70
2023-03-21T22:55:12.454Z,46.20
2023-03-21T23:01:15.583Z,41.30
2023-03-21T23:07:18.915Z,41.80
2023-03-21T23:13:22.674Z,44.50
2023-03-21T23:16:24.346Z,43.70
2023-03-21T23:19:27.262Z,42.50
2023-03-21T23:22:32.607Z,49.00
2023-03-21T23:25:34.349Z,45.30
2023-03-21T23:28:35.973Z,48.00
2023-03-21T23:34:39.160Z,44.40
2023-03-21T23:40:42.363Z,41.40
2023-03-21T23:43:43.913Z,45.60
2023-03-21T23:49:47.124Z,40.80
2023-03-21T23:52:48.928Z,42.80
2023-03-21T23:55:50.869Z,41.50
2023-03-21T23:58:52.588Z,43.20
